sensor_id;sensor_type;location;lat;lon;timestamp;P1;durP1;ratioP1;P2;durP2;ratioP2
8407;SDS011;4241;48.452;9.216;2023-05-15T00:01:32;441.63;;;134.73;;
8407;SDS011;4241;48.452;9.216;2023-05-15T00:03:59;438.97;;;132.47;;
8407;SDS011;4241;48.452;9.216;2023-05-15T00:06:26;437.37;;;131.80;;
8407;SDS011;4241;48.452;9.216;2023-05-15T00:08:53;439.83;;;133.33;;
8407;SDS011;4241;48.452;9.216;2023-05-15T00:11:21;438.23;;;133.07;;
8407;SDS011;4241;48.452;9.216;2023-05-15T00:13:48;440.03;;;132.93;;
8407;SDS011;4241;48.452;9.216;2023-05-15T00:16:15;442.20;;;136.40;;
8407;SDS011;4241;48.452;9.216;2023-05-15T00:18:42;437.90;;;131.50;;
8407;SDS011;4241;48.452;9.216;2023-05-15T00:21:08;439.67;;;132.83;;
8407;SDS011;4241;48.452;9.216;2023-05-15T00:23:35;439.07;;;133.17;;
8407;SDS011;4241;48.452;9.216;2023-05-15T00:26:02;438.80;;;133.03;;
8407;SDS011;4241;48.452;9.216;2023-05-15T00:28:30;438.37;;;132.33;;
8407;SDS011;4241;48.452;9.216;2023-05-15T00:30:57;438.30;;;132.07;;
8407;SDS011;4241;48.452;9.216;2023-05-15T00:33:24;437.90;;;131.23;;
8407;SDS011;4241;48.452;9.216;2023-05-15T00:35:51;436.33;;;130.43;;
8407;SDS011;4241;48.452;9.216;2023-05-15T00:38:18;439.57;;;133.70;;
8407;SDS011;4241;48.452;9.216;2023-05-15T00:40:45;437.40;;;131.37;;
8407;SDS011;4241;48.452;9.216;2023-05-15T00:43:12;439.03;;;132.33;;
8407;SDS011;4241;48.452;9.216;2023-05-15T00:45:42;435.53;;;129.17;;
8407;SDS011;4241;48.452;9.216;2023-05-15T00:48:10;433.17;;;127.90;;
8407;SDS011;4241;48.452;9.216;2023-05-15T00:50:37;437.53;;;131.37;;
8407;SDS011;4241;48.452;9.216;2023-05-15T00:53:08;436.17;;;130.87;;
8407;SDS011;4241;48.452;9.216;2023-05-15T00:55:35;444.63;;;137.60;;
8407;SDS011;4241;48.452;9.216;2023-05-15T00:58:03;436.67;;;130.93;;
8407;SDS011;4241;48.452;9.216;2023-05-15T01:00:30;435.47;;;129.97;;
8407;SDS011;4241;48.452;9.216;2023-05-15T01:03:00;438.00;;;131.23;;
8407;SDS011;4241;48.452;9.216;2023-05-15T01:05:27;444.30;;;137.03;;
8407;SDS011;4241;48.452;9.216;2023-05-15T01:07:55;434.07;;;129.53;;
8407;SDS011;4241;48.452;9.216;2023-05-15T01:10:26;433.00;;;128.30;;
8407;SDS011;4241;48.452;9.216;2023-05-15T01:12:53;435.27;;;129.30;;
8407;SDS011;4241;48.452;9.216;2023-05-15T01:15:21;437.73;;;131.87;;
8407;SDS011;4241;48.452;9.216;2023-05-15T01:17:48;434.13;;;128.03;;
8407;SDS011;4241;48.452;9.216;2023-05-15T01:20:17;433.80;;;128.47;;
8407;SDS011;4241;48.452;9.216;2023-05-15T01:22:51;436.87;;;130.73;;
8407;SDS011;4241;48.452;9.216;2023-05-15T01:28:37;431.20;;;126.67;;
8407;SDS011;4241;48.452;9.216;2023-05-15T01:31:08;435.43;;;130.47;;
8407;SDS011;4241;48.452;9.216;2023-05-15T01:33:39;434.53;;;129.33;;
8407;SDS011;4241;48.452;9.216;2023-05-15T01:36:11;434.60;;;129.80;;
8407;SDS011;4241;48.452;9.216;2023-05-15T01:38:41;431.57;;;128.50;;
8407;SDS011;4241;48.452;9.216;2023-05-15T01:41:13;436.47;;;131.13;;
8407;SDS011;4241;48.452;9.216;2023-05-15T01:43:47;434.93;;;130.37;;
8407;SDS011;4241;48.452;9.216;2023-05-15T01:46:20;433.40;;;129.03;;
8407;SDS011;4241;48.452;9.216;2023-05-15T01:48:48;435.67;;;130.63;;
8407;SDS011;4241;48.452;9.216;2023-05-15T01:51:17;437.43;;;132.43;;
8407;SDS011;4241;48.452;9.216;2023-05-15T01:53:45;434.77;;;129.70;;
8407;SDS011;4241;48.452;9.216;2023-05-15T01:56:14;435.17;;;129.60;;
8407;SDS011;4241;48.452;9.216;2023-05-15T01:58:41;438.97;;;134.10;;
8407;SDS011;4241;48.452;9.216;2023-05-15T02:01:10;434.67;;;130.37;;
8407;SDS011;4241;48.452;9.216;2023-05-15T02:03:38;437.67;;;133.07;;
8407;SDS011;4241;48.452;9.216;2023-05-15T02:06:06;430.63;;;126.40;;
8407;SDS011;4241;48.452;9.216;2023-05-15T02:08:34;437.20;;;132.03;;
8407;SDS011;4241;48.452;9.216;2023-05-15T02:11:01;432.63;;;129.37;;
8407;SDS011;4241;48.452;9.216;2023-05-15T02:13:29;434.13;;;129.93;;
8407;SDS011;4241;48.452;9.216;2023-05-15T02:15:57;434.93;;;131.10;;
8407;SDS011;4241;48.452;9.216;2023-05-15T02:18:25;434.77;;;130.47;;
8407;SDS011;4241;48.452;9.216;2023-05-15T02:20:53;435.80;;;131.27;;
8407;SDS011;4241;48.452;9.216;2023-05-15T02:23:19;438.13;;;133.67;;
8407;SDS011;4241;48.452;9.216;2023-05-15T02:25:49;433.47;;;129.23;;
8407;SDS011;4241;48.452;9.216;2023-05-15T02:28:35;432.83;;;128.67;;
8407;SDS011;4241;48.452;9.216;2023-05-15T02:31:10;436.20;;;131.63;;
8407;SDS011;4241;48.452;9.216;2023-05-15T02:33:46;434.10;;;129.27;;
8407;SDS011;4241;48.452;9.216;2023-05-15T02:36:22;432.37;;;129.17;;
8407;SDS011;4241;48.452;9.216;2023-05-15T02:38:54;435.30;;;131.53;;
8407;SDS011;4241;48.452;9.216;2023-05-15T02:41:23;438.20;;;131.93;;
8407;SDS011;4241;48.452;9.216;2023-05-15T02:43:51;438.30;;;132.23;;
8407;SDS011;4241;48.452;9.216;2023-05-15T02:46:19;434.67;;;130.80;;
8407;SDS011;4241;48.452;9.216;2023-05-15T02:48:50;437.80;;;132.80;;
8407;SDS011;4241;48.452;9.216;2023-05-15T02:51:17;438.10;;;132.17;;
8407;SDS011;4241;48.452;9.216;2023-05-15T02:53:45;434.83;;;130.13;;
8407;SDS011;4241;48.452;9.216;2023-05-15T02:56:11;437.07;;;131.00;;
8407;SDS011;4241;48.452;9.216;2023-05-15T02:58:38;438.80;;;132.43;;
8407;SDS011;4241;48.452;9.216;2023-05-15T03:01:06;438.17;;;132.67;;
8407;SDS011;4241;48.452;9.216;2023-05-15T03:03:33;438.73;;;133.43;;
8407;SDS011;4241;48.452;9.216;2023-05-15T03:06:01;437.80;;;131.20;;
8407;SDS011;4241;48.452;9.216;2023-05-15T03:08:28;435.33;;;130.47;;
8407;SDS011;4241;48.452;9.216;2023-05-15T03:10:54;439.20;;;134.70;;
8407;SDS011;4241;48.452;9.216;2023-05-15T03:13:21;438.30;;;132.43;;
8407;SDS011;4241;48.452;9.216;2023-05-15T03:15:48;437.57;;;133.53;;
8407;SDS011;4241;48.452;9.216;2023-05-15T03:18:15;436.47;;;131.47;;
8407;SDS011;4241;48.452;9.216;2023-05-15T03:20:43;437.07;;;132.13;;
8407;SDS011;4241;48.452;9.216;2023-05-15T03:23:11;437.10;;;132.37;;
8407;SDS011;4241;48.452;9.216;2023-05-15T03:25:38;441.03;;;135.57;;
8407;SDS011;4241;48.452;9.216;2023-05-15T03:28:05;436.57;;;132.10;;
8407;SDS011;4241;48.452;9.216;2023-05-15T03:30:32;437.27;;;132.77;;
8407;SDS011;4241;48.452;9.216;2023-05-15T03:32:59;436.93;;;132.33;;
8407;SDS011;4241;48.452;9.216;2023-05-15T03:35:27;444.23;;;138.37;;
8407;SDS011;4241;48.452;9.216;2023-05-15T03:37:56;435.97;;;130.93;;
8407;SDS011;4241;48.452;9.216;2023-05-15T03:40:24;436.00;;;132.00;;
8407;SDS011;4241;48.452;9.216;2023-05-15T03:42:51;434.77;;;130.30;;
8407;SDS011;4241;48.452;9.216;2023-05-15T03:45:18;438.10;;;133.87;;
8407;SDS011;4241;48.452;9.216;2023-05-15T03:47:45;435.80;;;131.87;;
8407;SDS011;4241;48.452;9.216;2023-05-15T03:50:12;435.60;;;129.77;;
8407;SDS011;4241;48.452;9.216;2023-05-15T03:52:39;436.67;;;131.83;;
8407;SDS011;4241;48.452;9.216;2023-05-15T03:55:06;434.13;;;130.37;;
8407;SDS011;4241;48.452;9.216;2023-05-15T03:57:35;434.80;;;130.43;;
8407;SDS011;4241;48.452;9.216;2023-05-15T04:00:02;436.73;;;130.73;;
8407;SDS011;4241;48.452;9.216;2023-05-15T04:02:33;433.83;;;129.33;;
8407;SDS011;4241;48.452;9.216;2023-05-15T04:05:01;436.53;;;133.20;;
8407;SDS011;4241;48.452;9.216;2023-05-15T04:07:29;435.47;;;131.37;;
8407;SDS011;4241;48.452;9.216;2023-05-15T04:09:56;436.77;;;131.90;;
8407;SDS011;4241;48.452;9.216;2023-05-15T04:12:25;434.13;;;129.07;;
8407;SDS011;4241;48.452;9.216;2023-05-15T04:14:55;436.37;;;131.50;;
8407;SDS011;4241;48.452;9.216;2023-05-15T04:17:24;439.67;;;135.23;;
8407;SDS011;4241;48.452;9.216;2023-05-15T04:19:50;438.00;;;132.70;;
8407;SDS011;4241;48.452;9.216;2023-05-15T04:22:17;432.17;;;128.33;;
8407;SDS011;4241;48.452;9.216;2023-05-15T04:24:44;435.10;;;130.87;;
8407;SDS011;4241;48.452;9.216;2023-05-15T04:27:11;434.67;;;130.10;;
8407;SDS011;4241;48.452;9.216;2023-05-15T04:29:38;438.37;;;133.43;;
8407;SDS011;4241;48.452;9.216;2023-05-15T04:32:06;438.23;;;133.00;;
8407;SDS011;4241;48.452;9.216;2023-05-15T04:34:33;436.50;;;131.23;;
8407;SDS011;4241;48.452;9.216;2023-05-15T04:37:00;433.63;;;129.17;;
8407;SDS011;4241;48.452;9.216;2023-05-15T04:39:27;434.20;;;130.07;;
8407;SDS011;4241;48.452;9.216;2023-05-15T04:41:53;435.37;;;131.27;;
8407;SDS011;4241;48.452;9.216;2023-05-15T04:44:20;435.83;;;130.33;;
8407;SDS011;4241;48.452;9.216;2023-05-15T04:46:47;435.33;;;130.30;;
8407;SDS011;4241;48.452;9.216;2023-05-15T04:49:16;433.83;;;128.97;;
8407;SDS011;4241;48.452;9.216;2023-05-15T04:51:42;436.53;;;131.60;;
8407;SDS011;4241;48.452;9.216;2023-05-15T04:54:10;435.60;;;131.53;;
8407;SDS011;4241;48.452;9.216;2023-05-15T04:56:37;434.03;;;129.23;;
8407;SDS011;4241;48.452;9.216;2023-05-15T04:59:03;437.37;;;133.33;;
8407;SDS011;4241;48.452;9.216;2023-05-15T05:01:30;443.50;;;137.33;;
8407;SDS011;4241;48.452;9.216;2023-05-15T05:03:57;440.23;;;134.30;;
8407;SDS011;4241;48.452;9.216;2023-05-15T05:06:25;440.60;;;134.50;;
8407;SDS011;4241;48.452;9.216;2023-05-15T05:08:52;445.10;;;138.90;;
8407;SDS011;4241;48.452;9.216;2023-05-15T05:11:19;442.50;;;137.10;;
8407;SDS011;4241;48.452;9.216;2023-05-15T05:13:46;438.23;;;133.87;;
8407;SDS011;4241;48.452;9.216;2023-05-15T05:16:13;438.23;;;133.20;;
8407;SDS011;4241;48.452;9.216;2023-05-15T05:18:40;439.83;;;134.93;;
8407;SDS011;4241;48.452;9.216;2023-05-15T05:21:07;440.50;;;134.87;;
8407;SDS011;4241;48.452;9.216;2023-05-15T05:23:36;437.63;;;133.57;;
8407;SDS011;4241;48.452;9.216;2023-05-15T05:26:02;440.50;;;135.97;;
8407;SDS011;4241;48.452;9.216;2023-05-15T05:28:29;439.37;;;135.00;;
8407;SDS011;4241;48.452;9.216;2023-05-15T05:30:56;441.83;;;136.97;;
8407;SDS011;4241;48.452;9.216;2023-05-15T05:33:23;440.13;;;136.30;;
8407;SDS011;4241;48.452;9.216;2023-05-15T05:35:50;441.20;;;137.37;;
8407;SDS011;4241;48.452;9.216;2023-05-15T05:38:18;440.43;;;136.63;;
8407;SDS011;4241;48.452;9.216;2023-05-15T05:40:46;440.40;;;136.20;;
8407;SDS011;4241;48.452;9.216;2023-05-15T05:43:13;440.33;;;137.00;;
8407;SDS011;4241;48.452;9.216;2023-05-15T05:45:40;442.43;;;138.60;;
8407;SDS011;4241;48.452;9.216;2023-05-15T05:48:06;442.33;;;138.27;;
8407;SDS011;4241;48.452;9.216;2023-05-15T05:50:33;442.73;;;139.00;;
8407;SDS011;4241;48.452;9.216;2023-05-15T05:53:00;442.63;;;138.30;;
8407;SDS011;4241;48.452;9.216;2023-05-15T05:55:27;449.90;;;145.70;;
8407;SDS011;4241;48.452;9.216;2023-05-15T05:57:55;443.40;;;140.00;;
8407;SDS011;4241;48.452;9.216;2023-05-15T06:00:22;443.93;;;140.33;;
8407;SDS011;4241;48.452;9.216;2023-05-15T06:02:50;443.70;;;139.87;;
8407;SDS011;4241;48.452;9.216;2023-05-15T06:05:20;448.27;;;145.23;;
8407;SDS011;4241;48.452;9.216;2023-05-15T06:07:48;445.43;;;141.47;;
8407;SDS011;4241;48.452;9.216;2023-05-15T06:10:15;443.63;;;140.03;;
8407;SDS011;4241;48.452;9.216;2023-05-15T06:12:42;445.67;;;142.67;;
8407;SDS011;4241;48.452;9.216;2023-05-15T06:15:10;445.90;;;143.03;;
8407;SDS011;4241;48.452;9.216;2023-05-15T06:17:38;446.57;;;143.13;;
8407;SDS011;4241;48.452;9.216;2023-05-15T06:20:05;445.17;;;142.00;;
8407;SDS011;4241;48.452;9.216;2023-05-15T06:22:34;446.23;;;142.73;;
8407;SDS011;4241;48.452;9.216;2023-05-15T06:25:03;447.57;;;143.87;;
8407;SDS011;4241;48.452;9.216;2023-05-15T06:27:31;447.57;;;143.77;;
8407;SDS011;4241;48.452;9.216;2023-05-15T06:29:58;448.77;;;145.27;;
8407;SDS011;4241;48.452;9.216;2023-05-15T06:32:27;445.77;;;143.47;;
8407;SDS011;4241;48.452;9.216;2023-05-15T06:34:54;448.53;;;144.73;;
8407;SDS011;4241;48.452;9.216;2023-05-15T06:37:21;450.03;;;147.47;;
8407;SDS011;4241;48.452;9.216;2023-05-15T06:39:48;449.70;;;145.93;;
8407;SDS011;4241;48.452;9.216;2023-05-15T06:42:15;451.17;;;148.93;;
8407;SDS011;4241;48.452;9.216;2023-05-15T06:44:42;450.87;;;147.80;;
8407;SDS011;4241;48.452;9.216;2023-05-15T06:47:08;447.00;;;146.30;;
8407;SDS011;4241;48.452;9.216;2023-05-15T06:49:37;452.27;;;151.07;;
8407;SDS011;4241;48.452;9.216;2023-05-15T06:52:04;453.57;;;152.17;;
8407;SDS011;4241;48.452;9.216;2023-05-15T06:54:31;452.90;;;153.30;;
8407;SDS011;4241;48.452;9.216;2023-05-15T06:56:58;456.57;;;153.47;;
8407;SDS011;4241;48.452;9.216;2023-05-15T06:59:25;455.17;;;154.50;;
8407;SDS011;4241;48.452;9.216;2023-05-15T07:01:52;454.70;;;152.83;;
8407;SDS011;4241;48.452;9.216;2023-05-15T07:04:20;455.83;;;154.20;;
8407;SDS011;4241;48.452;9.216;2023-05-15T07:06:48;454.83;;;154.80;;
8407;SDS011;4241;48.452;9.216;2023-05-15T07:09:14;452.77;;;153.07;;
8407;SDS011;4241;48.452;9.216;2023-05-15T07:11:41;454.53;;;153.10;;
8407;SDS011;4241;48.452;9.216;2023-05-15T07:14:08;457.20;;;155.90;;
8407;SDS011;4241;48.452;9.216;2023-05-15T07:16:35;452.63;;;152.33;;
8407;SDS011;4241;48.452;9.216;2023-05-15T07:19:02;455.30;;;154.73;;
8407;SDS011;4241;48.452;9.216;2023-05-15T07:21:28;455.43;;;155.90;;
8407;SDS011;4241;48.452;9.216;2023-05-15T07:23:57;460.57;;;161.27;;
8407;SDS011;4241;48.452;9.216;2023-05-15T07:26:24;460.37;;;158.27;;
8407;SDS011;4241;48.452;9.216;2023-05-15T07:28:51;455.77;;;156.50;;
8407;SDS011;4241;48.452;9.216;2023-05-15T07:31:19;460.97;;;161.23;;
8407;SDS011;4241;48.452;9.216;2023-05-15T07:33:45;458.63;;;160.97;;
8407;SDS011;4241;48.452;9.216;2023-05-15T07:36:12;457.40;;;158.63;;
8407;SDS011;4241;48.452;9.216;2023-05-15T07:38:39;457.73;;;159.33;;
8407;SDS011;4241;48.452;9.216;2023-05-15T07:41:07;460.70;;;161.53;;
8407;SDS011;4241;48.452;9.216;2023-05-15T07:43:34;459.70;;;161.13;;
8407;SDS011;4241;48.452;9.216;2023-05-15T07:46:01;456.97;;;159.43;;
8407;SDS011;4241;48.452;9.216;2023-05-15T07:48:28;459.63;;;162.43;;
8407;SDS011;4241;48.452;9.216;2023-05-15T07:50:54;460.10;;;162.70;;
8407;SDS011;4241;48.452;9.216;2023-05-15T07:53:21;459.70;;;163.27;;
8407;SDS011;4241;48.452;9.216;2023-05-15T07:55:48;460.23;;;164.60;;
8407;SDS011;4241;48.452;9.216;2023-05-15T07:58:16;460.93;;;165.97;;
8407;SDS011;4241;48.452;9.216;2023-05-15T08:00:43;460.17;;;164.43;;
8407;SDS011;4241;48.452;9.216;2023-05-15T08:03:10;464.93;;;170.37;;
8407;SDS011;4241;48.452;9.216;2023-05-15T08:05:36;467.47;;;174.77;;
8407;SDS011;4241;48.452;9.216;2023-05-15T08:08:03;463.57;;;171.93;;
8407;SDS011;4241;48.452;9.216;2023-05-15T08:10:30;464.47;;;172.63;;
8407;SDS011;4241;48.452;9.216;2023-05-15T08:12:57;467.03;;;176.73;;
8407;SDS011;4241;48.452;9.216;2023-05-15T08:15:25;463.63;;;173.40;;
8407;SDS011;4241;48.452;9.216;2023-05-15T08:17:53;466.43;;;178.67;;
8407;SDS011;4241;48.452;9.216;2023-05-15T08:20:20;466.97;;;181.57;;
8407;SDS011;4241;48.452;9.216;2023-05-15T08:22:46;469.43;;;184.97;;
8407;SDS011;4241;48.452;9.216;2023-05-15T08:25:13;468.40;;;182.83;;
8407;SDS011;4241;48.452;9.216;2023-05-15T08:27:40;467.67;;;182.50;;
8407;SDS011;4241;48.452;9.216;2023-05-15T08:30:07;474.77;;;191.37;;
8407;SDS011;4241;48.452;9.216;2023-05-15T08:32:36;469.47;;;185.50;;
8407;SDS011;4241;48.452;9.216;2023-05-15T08:35:03;468.97;;;186.03;;
8407;SDS011;4241;48.452;9.216;2023-05-15T08:37:30;469.57;;;189.23;;
8407;SDS011;4241;48.452;9.216;2023-05-15T08:39:57;471.53;;;193.60;;
8407;SDS011;4241;48.452;9.216;2023-05-15T08:42:27;471.57;;;194.53;;
8407;SDS011;4241;48.452;9.216;2023-05-15T08:44:58;470.43;;;194.50;;
8407;SDS011;4241;48.452;9.216;2023-05-15T08:47:26;472.67;;;197.63;;
8407;SDS011;4241;48.452;9.216;2023-05-15T08:49:57;476.13;;;206.73;;
8407;SDS011;4241;48.452;9.216;2023-05-15T08:52:28;473.47;;;203.10;;
8407;SDS011;4241;48.452;9.216;2023-05-15T08:54:56;475.63;;;205.60;;
8407;SDS011;4241;48.452;9.216;2023-05-15T08:57:25;475.80;;;208.73;;
8407;SDS011;4241;48.452;9.216;2023-05-15T08:59:53;478.67;;;216.83;;
8407;SDS011;4241;48.452;9.216;2023-05-15T09:02:20;479.17;;;218.93;;
8407;SDS011;4241;48.452;9.216;2023-05-15T09:04:50;479.67;;;224.00;;
8407;SDS011;4241;48.452;9.216;2023-05-15T09:07:18;479.47;;;224.73;;
8407;SDS011;4241;48.452;9.216;2023-05-15T09:09:45;482.47;;;232.30;;
8407;SDS011;4241;48.452;9.216;2023-05-15T09:12:13;480.83;;;230.53;;
8407;SDS011;4241;48.452;9.216;2023-05-15T09:14:41;480.67;;;231.70;;
8407;SDS011;4241;48.452;9.216;2023-05-15T09:17:08;482.33;;;233.63;;
8407;SDS011;4241;48.452;9.216;2023-05-15T09:19:35;482.40;;;235.13;;
8407;SDS011;4241;48.452;9.216;2023-05-15T09:22:13;485.07;;;238.43;;
8407;SDS011;4241;48.452;9.216;2023-05-15T09:24:43;483.10;;;237.03;;
8407;SDS011;4241;48.452;9.216;2023-05-15T09:27:12;491.97;;;249.00;;
8407;SDS011;4241;48.452;9.216;2023-05-15T09:29:39;484.50;;;238.00;;
8407;SDS011;4241;48.452;9.216;2023-05-15T09:32:07;482.73;;;235.27;;
8407;SDS011;4241;48.452;9.216;2023-05-15T09:34:36;480.17;;;229.30;;
8407;SDS011;4241;48.452;9.216;2023-05-15T09:37:05;480.60;;;230.40;;
8407;SDS011;4241;48.452;9.216;2023-05-15T09:39:34;481.50;;;231.27;;
8407;SDS011;4241;48.452;9.216;2023-05-15T09:42:07;483.27;;;237.53;;
8407;SDS011;4241;48.452;9.216;2023-05-15T09:44:39;482.50;;;242.17;;
8407;SDS011;4241;48.452;9.216;2023-05-15T09:47:06;485.00;;;243.77;;
8407;SDS011;4241;48.452;9.216;2023-05-15T09:49:34;482.00;;;238.07;;
8407;SDS011;4241;48.452;9.216;2023-05-15T09:52:01;484.97;;;246.23;;
8407;SDS011;4241;48.452;9.216;2023-05-15T09:54:28;483.70;;;243.57;;
8407;SDS011;4241;48.452;9.216;2023-05-15T09:56:57;485.30;;;247.03;;
8407;SDS011;4241;48.452;9.216;2023-05-15T09:59:34;481.20;;;236.13;;
8407;SDS011;4241;48.452;9.216;2023-05-15T10:02:01;481.70;;;236.53;;
8407;SDS011;4241;48.452;9.216;2023-05-15T10:04:32;485.47;;;240.07;;
8407;SDS011;4241;48.452;9.216;2023-05-15T10:07:00;478.13;;;229.50;;
8407;SDS011;4241;48.452;9.216;2023-05-15T10:09:28;479.10;;;225.30;;
8407;SDS011;4241;48.452;9.216;2023-05-15T10:11:56;481.60;;;225.97;;
8407;SDS011;4241;48.452;9.216;2023-05-15T10:14:25;476.30;;;220.63;;
8407;SDS011;4241;48.452;9.216;2023-05-15T10:16:52;476.80;;;217.57;;
8407;SDS011;4241;48.452;9.216;2023-05-15T10:19:21;472.83;;;212.43;;
8407;SDS011;4241;48.452;9.216;2023-05-15T10:21:50;473.33;;;211.80;;
8407;SDS011;4241;48.452;9.216;2023-05-15T10:24:18;476.80;;;211.33;;
8407;SDS011;4241;48.452;9.216;2023-05-15T10:26:46;477.07;;;209.70;;
8407;SDS011;4241;48.452;9.216;2023-05-15T10:29:16;475.60;;;200.30;;
8407;SDS011;4241;48.452;9.216;2023-05-15T10:31:46;470.67;;;191.70;;
8407;SDS011;4241;48.452;9.216;2023-05-15T10:34:14;468.17;;;185.47;;
8407;SDS011;4241;48.452;9.216;2023-05-15T10:36:42;468.43;;;187.77;;
8407;SDS011;4241;48.452;9.216;2023-05-15T10:39:09;467.43;;;187.60;;
8407;SDS011;4241;48.452;9.216;2023-05-15T10:41:37;466.57;;;185.47;;
8407;SDS011;4241;48.452;9.216;2023-05-15T10:44:05;467.77;;;187.60;;
8407;SDS011;4241;48.452;9.216;2023-05-15T10:46:32;466.17;;;187.27;;
8407;SDS011;4241;48.452;9.216;2023-05-15T10:49:02;476.33;;;199.83;;
8407;SDS011;4241;48.452;9.216;2023-05-15T10:51:30;474.17;;;199.93;;
8407;SDS011;4241;48.452;9.216;2023-05-15T10:54:00;471.03;;;194.17;;
8407;SDS011;4241;48.452;9.216;2023-05-15T10:56:28;467.63;;;190.37;;
8407;SDS011;4241;48.452;9.216;2023-05-15T10:58:56;466.57;;;191.00;;
8407;SDS011;4241;48.452;9.216;2023-05-15T11:01:23;467.97;;;192.47;;
8407;SDS011;4241;48.452;9.216;2023-05-15T11:04:07;468.33;;;190.27;;
8407;SDS011;4241;48.452;9.216;2023-05-15T11:06:35;467.60;;;189.30;;
8407;SDS011;4241;48.452;9.216;2023-05-15T11:12:04;468.77;;;192.03;;
8407;SDS011;4241;48.452;9.216;2023-05-15T11:14:34;467.13;;;190.07;;
8407;SDS011;4241;48.452;9.216;2023-05-15T11:17:02;467.20;;;193.27;;
8407;SDS011;4241;48.452;9.216;2023-05-15T11:19:33;469.60;;;194.73;;
8407;SDS011;4241;48.452;9.216;2023-05-15T11:22:01;472.50;;;197.63;;
8407;SDS011;4241;48.452;9.216;2023-05-15T11:24:48;470.80;;;203.57;;
8407;SDS011;4241;48.452;9.216;2023-05-15T11:27:20;471.13;;;204.23;;
8407;SDS011;4241;48.452;9.216;2023-05-15T11:30:07;476.93;;;213.03;;
8407;SDS011;4241;48.452;9.216;2023-05-15T11:55:21;473.40;;;215.30;;
8407;SDS011;4241;48.452;9.216;2023-05-15T11:57:48;471.63;;;216.23;;
8407;SDS011;4241;48.452;9.216;2023-05-15T12:00:15;468.70;;;208.43;;
8407;SDS011;4241;48.452;9.216;2023-05-15T12:02:42;469.10;;;213.37;;
8407;SDS011;4241;48.452;9.216;2023-05-15T12:05:09;469.67;;;211.30;;
8407;SDS011;4241;48.452;9.216;2023-05-15T12:07:36;469.07;;;210.60;;
8407;SDS011;4241;48.452;9.216;2023-05-15T12:10:04;470.33;;;213.10;;
8407;SDS011;4241;48.452;9.216;2023-05-15T12:12:33;471.93;;;209.50;;
8407;SDS011;4241;48.452;9.216;2023-05-15T12:15:01;468.40;;;204.27;;
8407;SDS011;4241;48.452;9.216;2023-05-15T12:17:30;466.97;;;203.17;;
8407;SDS011;4241;48.452;9.216;2023-05-15T12:19:57;466.47;;;199.73;;
8407;SDS011;4241;48.452;9.216;2023-05-15T12:22:25;468.00;;;201.40;;
8407;SDS011;4241;48.452;9.216;2023-05-15T12:24:52;464.87;;;196.20;;
8407;SDS011;4241;48.452;9.216;2023-05-15T12:27:23;468.07;;;198.93;;
8407;SDS011;4241;48.452;9.216;2023-05-15T12:29:51;474.87;;;207.10;;
8407;SDS011;4241;48.452;9.216;2023-05-15T12:32:19;469.37;;;209.07;;
8407;SDS011;4241;48.452;9.216;2023-05-15T12:34:46;471.63;;;211.10;;
8407;SDS011;4241;48.452;9.216;2023-05-15T12:37:13;470.80;;;213.90;;
8407;SDS011;4241;48.452;9.216;2023-05-15T12:39:48;473.33;;;222.10;;
8407;SDS011;4241;48.452;9.216;2023-05-15T12:42:16;474.10;;;224.23;;
8407;SDS011;4241;48.452;9.216;2023-05-15T12:44:43;475.23;;;227.43;;
8407;SDS011;4241;48.452;9.216;2023-05-15T12:47:13;477.57;;;234.70;;
8407;SDS011;4241;48.452;9.216;2023-05-15T12:49:40;486.80;;;249.63;;
8407;SDS011;4241;48.452;9.216;2023-05-15T12:52:07;478.33;;;238.63;;
8407;SDS011;4241;48.452;9.216;2023-05-15T12:54:37;481.30;;;249.00;;
8407;SDS011;4241;48.452;9.216;2023-05-15T12:57:06;480.17;;;246.33;;
8407;SDS011;4241;48.452;9.216;2023-05-15T12:59:34;486.77;;;263.00;;
8407;SDS011;4241;48.452;9.216;2023-05-15T13:02:01;485.50;;;256.23;;
8407;SDS011;4241;48.452;9.216;2023-05-15T13:04:31;482.20;;;251.33;;
8407;SDS011;4241;48.452;9.216;2023-05-15T13:06:58;484.23;;;253.03;;
8407;SDS011;4241;48.452;9.216;2023-05-15T13:09:24;531.20;;;291.03;;
8407;SDS011;4241;48.452;9.216;2023-05-15T13:11:53;483.70;;;251.10;;
8407;SDS011;4241;48.452;9.216;2023-05-15T13:14:20;483.50;;;250.13;;
8407;SDS011;4241;48.452;9.216;2023-05-15T13:16:51;483.70;;;250.10;;
8407;SDS011;4241;48.452;9.216;2023-05-15T13:19:18;483.87;;;252.30;;
8407;SDS011;4241;48.452;9.216;2023-05-15T13:21:46;485.37;;;253.47;;
8407;SDS011;4241;48.452;9.216;2023-05-15T13:24:14;487.73;;;255.80;;
8407;SDS011;4241;48.452;9.216;2023-05-15T13:26:41;485.43;;;257.40;;
8407;SDS011;4241;48.452;9.216;2023-05-15T13:29:08;485.53;;;254.67;;
8407;SDS011;4241;48.452;9.216;2023-05-15T13:31:38;484.13;;;255.73;;
8407;SDS011;4241;48.452;9.216;2023-05-15T13:34:04;483.87;;;252.10;;
8407;SDS011;4241;48.452;9.216;2023-05-15T13:36:31;482.80;;;248.87;;
8407;SDS011;4241;48.452;9.216;2023-05-15T13:38:59;481.43;;;247.40;;
8407;SDS011;4241;48.452;9.216;2023-05-15T13:41:27;483.27;;;248.60;;
8407;SDS011;4241;48.452;9.216;2023-05-15T13:43:54;484.10;;;254.10;;
8407;SDS011;4241;48.452;9.216;2023-05-15T13:46:21;486.13;;;256.27;;
8407;SDS011;4241;48.452;9.216;2023-05-15T13:48:48;482.67;;;248.63;;
8407;SDS011;4241;48.452;9.216;2023-05-15T13:51:15;484.90;;;254.67;;
8407;SDS011;4241;48.452;9.216;2023-05-15T13:53:41;484.67;;;255.60;;
8407;SDS011;4241;48.452;9.216;2023-05-15T13:56:10;485.07;;;256.47;;
8407;SDS011;4241;48.452;9.216;2023-05-15T13:58:37;483.37;;;254.60;;
8407;SDS011;4241;48.452;9.216;2023-05-15T14:01:05;480.80;;;249.93;;
8407;SDS011;4241;48.452;9.216;2023-05-15T14:03:32;480.57;;;248.70;;
8407;SDS011;4241;48.452;9.216;2023-05-15T14:05:59;480.87;;;248.57;;
8407;SDS011;4241;48.452;9.216;2023-05-15T14:08:26;487.43;;;249.80;;
8407;SDS011;4241;48.452;9.216;2023-05-15T14:10:53;480.87;;;247.63;;
8407;SDS011;4241;48.452;9.216;2023-05-15T14:13:21;482.00;;;249.40;;
8407;SDS011;4241;48.452;9.216;2023-05-15T14:15:48;480.60;;;247.43;;
8407;SDS011;4241;48.452;9.216;2023-05-15T14:18:15;480.50;;;242.47;;
8407;SDS011;4241;48.452;9.216;2023-05-15T14:20:42;481.33;;;244.07;;
8407;SDS011;4241;48.452;9.216;2023-05-15T14:23:09;480.90;;;240.33;;
8407;SDS011;4241;48.452;9.216;2023-05-15T14:25:35;486.70;;;243.83;;
8407;SDS011;4241;48.452;9.216;2023-05-15T14:28:02;481.70;;;235.10;;
8407;SDS011;4241;48.452;9.216;2023-05-15T14:30:30;476.43;;;224.70;;
8407;SDS011;4241;48.452;9.216;2023-05-15T14:32:57;475.23;;;217.67;;
8407;SDS011;4241;48.452;9.216;2023-05-15T14:35:25;481.77;;;225.53;;
8407;SDS011;4241;48.452;9.216;2023-05-15T14:37:52;474.47;;;214.13;;
8407;SDS011;4241;48.452;9.216;2023-05-15T14:40:18;474.43;;;214.73;;
8407;SDS011;4241;48.452;9.216;2023-05-15T14:42:45;471.50;;;209.63;;
8407;SDS011;4241;48.452;9.216;2023-05-15T14:45:12;471.87;;;206.83;;
8407;SDS011;4241;48.452;9.216;2023-05-15T14:47:40;473.27;;;208.77;;
8407;SDS011;4241;48.452;9.216;2023-05-15T14:50:07;473.57;;;209.70;;
8407;SDS011;4241;48.452;9.216;2023-05-15T14:52:34;474.27;;;211.40;;
8407;SDS011;4241;48.452;9.216;2023-05-15T14:55:01;473.27;;;205.17;;